sensor_id;sensor_type;location;lat;lon;timestamp;P1;durP1;ratioP1;P2;durP2;ratioP2
36671;SDS011;22663;47.412;9.742;2022-11-21T00:01:10;0.30;;;0.13;;
36671;SDS011;22663;47.412;9.742;2022-11-21T00:03:36;0.20;;;0.10;;
36671;SDS011;22663;47.412;9.742;2022-11-21T00:06:02;1.00;;;0.20;;
36671;SDS011;22663;47.412;9.742;2022-11-21T00:08:29;0.90;;;0.30;;
36671;SDS011;22663;47.412;9.742;2022-11-21T00:10:57;0.28;;;0.10;;
36671;SDS011;22663;47.412;9.742;2022-11-21T00:13:23;0.35;;;0.13;;
36671;SDS011;22663;47.412;9.742;2022-11-21T00:15:49;0.30;;;0.10;;
36671;SDS011;22663;47.412;9.742;2022-11-21T00:18:15;0.45;;;0.13;;
36671;SDS011;22663;47.412;9.742;2022-11-21T00:20:41;0.88;;;0.30;;
36671;SDS011;22663;47.412;9.742;2022-11-21T00:23:08;0.52;;;0.20;;
36671;SDS011;22663;47.412;9.742;2022-11-21T00:25:34;0.55;;;0.28;;
36671;SDS011;22663;47.412;9.742;2022-11-21T00:28:00;0.68;;;0.20;;
36671;SDS011;22663;47.412;9.742;2022-11-21T00:30:26;0.70;;;0.28;;
36671;SDS011;22663;47.412;9.742;2022-11-21T00:32:52;0.20;;;0.10;;
36671;SDS011;22663;47.412;9.742;2022-11-21T00:35:18;0.88;;;0.22;;
36671;SDS011;22663;47.412;9.742;2022-11-21T00:37:44;0.45;;;0.40;;
36671;SDS011;22663;47.412;9.742;2022-11-21T00:40:12;0.43;;;0.30;;
36671;SDS011;22663;47.412;9.742;2022-11-21T00:42:39;1.10;;;0.30;;
36671;SDS011;22663;47.412;9.742;2022-11-21T00:45:05;0.65;;;0.47;;
36671;SDS011;22663;47.412;9.742;2022-11-21T00:47:31;0.80;;;0.57;;
36671;SDS011;22663;47.412;9.742;2022-11-21T00:49:57;2.03;;;0.70;;
36671;SDS011;22663;47.412;9.742;2022-11-21T00:52:23;1.85;;;0.45;;
36671;SDS011;22663;47.412;9.742;2022-11-21T00:54:49;0.60;;;0.40;;
36671;SDS011;22663;47.412;9.742;2022-11-21T00:57:15;0.60;;;0.40;;
36671;SDS011;22663;47.412;9.742;2022-11-21T00:59:41;1.05;;;0.57;;
36671;SDS011;22663;47.412;9.742;2022-11-21T01:02:07;1.63;;;0.60;;
36671;SDS011;22663;47.412;9.742;2022-11-21T01:04:34;1.08;;;0.70;;
36671;SDS011;22663;47.412;9.742;2022-11-21T01:07:00;0.85;;;0.40;;
36671;SDS011;22663;47.412;9.742;2022-11-21T01:09:26;1.38;;;0.50;;
36671;SDS011;22663;47.412;9.742;2022-11-21T01:11:53;3.20;;;0.90;;
36671;SDS011;22663;47.412;9.742;2022-11-21T01:14:19;0.70;;;0.55;;
36671;SDS011;22663;47.412;9.742;2022-11-21T01:16:45;0.88;;;0.63;;
36671;SDS011;22663;47.412;9.742;2022-11-21T01:19:11;1.05;;;0.55;;
36671;SDS011;22663;47.412;9.742;2022-11-21T01:21:37;3.38;;;1.13;;
36671;SDS011;22663;47.412;9.742;2022-11-21T01:24:03;3.85;;;1.38;;
36671;SDS011;22663;47.412;9.742;2022-11-21T01:26:29;2.42;;;1.08;;
36671;SDS011;22663;47.412;9.742;2022-11-21T01:28:57;1.67;;;0.57;;
36671;SDS011;22663;47.412;9.742;2022-11-21T01:31:27;1.35;;;0.50;;
36671;SDS011;22663;47.412;9.742;2022-11-21T01:33:53;1.55;;;0.30;;
36671;SDS011;22663;47.412;9.742;2022-11-21T01:36:20;0.77;;;0.30;;
36671;SDS011;22663;47.412;9.742;2022-11-21T01:38:48;0.40;;;0.20;;
36671;SDS011;22663;47.412;9.742;2022-11-21T01:41:18;0.60;;;0.40;;
36671;SDS011;22663;47.412;9.742;2022-11-21T01:43:45;2.22;;;0.32;;
36671;SDS011;22663;47.412;9.742;2022-11-21T01:46:15;0.52;;;0.35;;
36671;SDS011;22663;47.412;9.742;2022-11-21T01:53:40;1.63;;;0.75;;
36671;SDS011;22663;47.412;9.742;2022-11-21T01:56:06;0.75;;;0.40;;
36671;SDS011;22663;47.412;9.742;2022-11-21T01:58:33;2.05;;;0.30;;
36671;SDS011;22663;47.412;9.742;2022-11-21T02:01:00;1.40;;;0.30;;
36671;SDS011;22663;47.412;9.742;2022-11-21T02:03:27;0.77;;;0.25;;
36671;SDS011;22663;47.412;9.742;2022-11-21T02:05:54;1.52;;;0.30;;
36671;SDS011;22663;47.412;9.742;2022-11-21T02:08:20;1.00;;;0.38;;
36671;SDS011;22663;47.412;9.742;2022-11-21T02:10:54;2.05;;;0.40;;
36671;SDS011;22663;47.412;9.742;2022-11-21T02:13:21;1.55;;;0.32;;
36671;SDS011;22663;47.412;9.742;2022-11-21T02:15:47;1.75;;;0.35;;
36671;SDS011;22663;47.412;9.742;2022-11-21T02:18:13;0.60;;;0.30;;
36671;SDS011;22663;47.412;9.742;2022-11-21T02:20:39;1.05;;;0.50;;
36671;SDS011;22663;47.412;9.742;2022-11-21T02:23:11;0.77;;;0.30;;
36671;SDS011;22663;47.412;9.742;2022-11-21T02:25:41;0.63;;;0.30;;
36671;SDS011;22663;47.412;9.742;2022-11-21T02:28:08;2.72;;;0.30;;
36671;SDS011;22663;47.412;9.742;2022-11-21T02:30:36;0.45;;;0.20;;
36671;SDS011;22663;47.412;9.742;2022-11-21T02:33:03;1.58;;;0.20;;
36671;SDS011;22663;47.412;9.742;2022-11-21T02:35:30;1.65;;;0.20;;
36671;SDS011;22663;47.412;9.742;2022-11-21T02:37:58;0.63;;;0.32;;
36671;SDS011;22663;47.412;9.742;2022-11-21T02:40:26;0.73;;;0.40;;
36671;SDS011;22663;47.412;9.742;2022-11-21T02:45:39;0.77;;;0.57;;
36671;SDS011;22663;47.412;9.742;2022-11-21T02:48:06;0.93;;;0.65;;
36671;SDS011;22663;47.412;9.742;2022-11-21T02:50:33;2.17;;;0.68;;
36671;SDS011;22663;47.412;9.742;2022-11-21T02:52:59;0.73;;;0.63;;
36671;SDS011;22663;47.412;9.742;2022-11-21T02:55:25;1.00;;;0.82;;
36671;SDS011;22663;47.412;9.742;2022-11-21T02:57:52;2.50;;;0.80;;
36671;SDS011;22663;47.412;9.742;2022-11-21T03:00:18;1.42;;;0.75;;
36671;SDS011;22663;47.412;9.742;2022-11-21T03:02:44;1.15;;;0.70;;
36671;SDS011;22663;47.412;9.742;2022-11-21T03:05:11;0.63;;;0.57;;
36671;SDS011;22663;47.412;9.742;2022-11-21T03:07:38;2.55;;;1.10;;
36671;SDS011;22663;47.412;9.742;2022-11-21T03:10:04;2.05;;;0.90;;
36671;SDS011;22663;47.412;9.742;2022-11-21T03:12:30;0.90;;;0.75;;
36671;SDS011;22663;47.412;9.742;2022-11-21T03:14:56;1.60;;;0.80;;
36671;SDS011;22663;47.412;9.742;2022-11-21T03:17:22;1.65;;;0.80;;
36671;SDS011;22663;47.412;9.742;2022-11-21T03:19:48;1.17;;;0.80;;
36671;SDS011;22663;47.412;9.742;2022-11-21T03:22:14;0.88;;;0.70;;
36671;SDS011;22663;47.412;9.742;2022-11-21T03:24:41;0.88;;;0.60;;
36671;SDS011;22663;47.412;9.742;2022-11-21T03:27:07;1.00;;;0.90;;
36671;SDS011;22663;47.412;9.742;2022-11-21T03:29:33;0.90;;;0.60;;
36671;SDS011;22663;47.412;9.742;2022-11-21T03:31:59;1.25;;;0.68;;
36671;SDS011;22663;47.412;9.742;2022-11-21T03:34:25;1.73;;;1.08;;
36671;SDS011;22663;47.412;9.742;2022-11-21T03:36:51;1.35;;;0.90;;
36671;SDS011;22663;47.412;9.742;2022-11-21T03:39:17;1.23;;;0.82;;
36671;SDS011;22663;47.412;9.742;2022-11-21T03:41:43;1.52;;;1.10;;
36671;SDS011;22663;47.412;9.742;2022-11-21T03:44:10;1.85;;;1.00;;
36671;SDS011;22663;47.412;9.742;2022-11-21T03:46:37;1.45;;;0.77;;
36671;SDS011;22663;47.412;9.742;2022-11-21T03:49:03;1.67;;;0.85;;
36671;SDS011;22663;47.412;9.742;2022-11-21T03:51:30;1.45;;;0.88;;
36671;SDS011;22663;47.412;9.742;2022-11-21T03:53:56;1.00;;;0.68;;
36671;SDS011;22663;47.412;9.742;2022-11-21T03:56:22;1.00;;;0.73;;
36671;SDS011;22663;47.412;9.742;2022-11-21T03:58:48;1.42;;;0.68;;
36671;SDS011;22663;47.412;9.742;2022-11-21T04:01:14;1.15;;;0.60;;
36671;SDS011;22663;47.412;9.742;2022-11-21T04:03:41;0.57;;;0.50;;
36671;SDS011;22663;47.412;9.742;2022-11-21T04:06:07;1.13;;;0.70;;
36671;SDS011;22663;47.412;9.742;2022-11-21T04:08:34;1.92;;;0.60;;
36671;SDS011;22663;47.412;9.742;2022-11-21T04:11:00;2.03;;;0.80;;
36671;SDS011;22663;47.412;9.742;2022-11-21T04:13:26;1.17;;;0.60;;
36671;SDS011;22663;47.412;9.742;2022-11-21T04:15:52;1.83;;;0.63;;
36671;SDS011;22663;47.412;9.742;2022-11-21T04:18:18;2.88;;;0.82;;
36671;SDS011;22663;47.412;9.742;2022-11-21T04:20:44;1.20;;;0.70;;
36671;SDS011;22663;47.412;9.742;2022-11-21T04:23:10;0.95;;;0.70;;
36671;SDS011;22663;47.412;9.742;2022-11-21T04:25:36;2.08;;;0.63;;
36671;SDS011;22663;47.412;9.742;2022-11-21T04:28:03;1.92;;;0.80;;
36671;SDS011;22663;47.412;9.742;2022-11-21T04:30:29;1.20;;;0.60;;
36671;SDS011;22663;47.412;9.742;2022-11-21T04:32:56;1.33;;;0.63;;
36671;SDS011;22663;47.412;9.742;2022-11-21T04:35:22;2.00;;;1.00;;
36671;SDS011;22663;47.412;9.742;2022-11-21T04:37:48;0.75;;;0.43;;
36671;SDS011;22663;47.412;9.742;2022-11-21T04:40:15;0.75;;;0.65;;
36671;SDS011;22663;47.412;9.742;2022-11-21T04:42:41;0.90;;;0.80;;
36671;SDS011;22663;47.412;9.742;2022-11-21T04:45:08;3.13;;;0.80;;
36671;SDS011;22663;47.412;9.742;2022-11-21T04:47:41;1.40;;;0.88;;
36671;SDS011;22663;47.412;9.742;2022-11-21T04:50:08;1.15;;;0.60;;
36671;SDS011;22663;47.412;9.742;2022-11-21T04:52:34;1.20;;;0.50;;
36671;SDS011;22663;47.412;9.742;2022-11-21T04:55:00;0.63;;;0.30;;
36671;SDS011;22663;47.412;9.742;2022-11-21T04:57:27;2.72;;;0.90;;
36671;SDS011;22663;47.412;9.742;2022-11-21T04:59:54;1.02;;;0.60;;
36671;SDS011;22663;47.412;9.742;2022-11-21T05:02:20;1.83;;;0.65;;
36671;SDS011;22663;47.412;9.742;2022-11-21T05:04:46;0.70;;;0.50;;
36671;SDS011;22663;47.412;9.742;2022-11-21T05:07:12;1.23;;;0.60;;
36671;SDS011;22663;47.412;9.742;2022-11-21T05:09:38;2.08;;;0.75;;
36671;SDS011;22663;47.412;9.742;2022-11-21T05:12:05;0.73;;;0.50;;
36671;SDS011;22663;47.412;9.742;2022-11-21T05:14:49;0.45;;;0.30;;
36671;SDS011;22663;47.412;9.742;2022-11-21T05:17:15;1.75;;;0.43;;
36671;SDS011;22663;47.412;9.742;2022-11-21T05:19:41;0.90;;;0.60;;
36671;SDS011;22663;47.412;9.742;2022-11-21T05:22:07;1.50;;;0.88;;
36671;SDS011;22663;47.412;9.742;2022-11-21T05:24:34;2.28;;;1.00;;
36671;SDS011;22663;47.412;9.742;2022-11-21T05:27:00;1.02;;;0.50;;
36671;SDS011;22663;47.412;9.742;2022-11-21T05:29:26;0.52;;;0.38;;
36671;SDS011;22663;47.412;9.742;2022-11-21T05:31:52;1.00;;;0.40;;
36671;SDS011;22663;47.412;9.742;2022-11-21T05:34:18;0.50;;;0.40;;
36671;SDS011;22663;47.412;9.742;2022-11-21T05:36:44;0.45;;;0.30;;
36671;SDS011;22663;47.412;9.742;2022-11-21T05:39:10;0.77;;;0.50;;
36671;SDS011;22663;47.412;9.742;2022-11-21T05:41:36;0.70;;;0.40;;
36671;SDS011;22663;47.412;9.742;2022-11-21T05:44:02;0.38;;;0.22;;
36671;SDS011;22663;47.412;9.742;2022-11-21T05:46:28;0.73;;;0.40;;
36671;SDS011;22663;47.412;9.742;2022-11-21T05:48:54;1.55;;;0.50;;
36671;SDS011;22663;47.412;9.742;2022-11-21T05:51:20;0.70;;;0.30;;
36671;SDS011;22663;47.412;9.742;2022-11-21T05:53:46;0.40;;;0.30;;
36671;SDS011;22663;47.412;9.742;2022-11-21T05:56:14;0.63;;;0.45;;
36671;SDS011;22663;47.412;9.742;2022-11-21T05:58:40;1.17;;;0.40;;
36671;SDS011;22663;47.412;9.742;2022-11-21T06:01:08;0.60;;;0.50;;
36671;SDS011;22663;47.412;9.742;2022-11-21T06:03:35;1.15;;;0.68;;
36671;SDS011;22663;47.412;9.742;2022-11-21T06:06:03;1.48;;;0.63;;
36671;SDS011;22663;47.412;9.742;2022-11-21T06:08:30;0.95;;;0.50;;
36671;SDS011;22663;47.412;9.742;2022-11-21T06:10:57;1.25;;;0.60;;
36671;SDS011;22663;47.412;9.742;2022-11-21T06:13:23;1.05;;;0.45;;
36671;SDS011;22663;47.412;9.742;2022-11-21T06:15:50;0.70;;;0.50;;
36671;SDS011;22663;47.412;9.742;2022-11-21T06:18:17;2.22;;;0.50;;
36671;SDS011;22663;47.412;9.742;2022-11-21T06:20:43;1.23;;;0.60;;
36671;SDS011;22663;47.412;9.742;2022-11-21T06:23:09;1.38;;;0.60;;
36671;SDS011;22663;47.412;9.742;2022-11-21T06:25:36;1.10;;;0.43;;
36671;SDS011;22663;47.412;9.742;2022-11-21T06:28:02;1.00;;;0.52;;
36671;SDS011;22663;47.412;9.742;2022-11-21T06:30:28;3.10;;;0.63;;
36671;SDS011;22663;47.412;9.742;2022-11-21T06:32:54;2.30;;;0.55;;
36671;SDS011;22663;47.412;9.742;2022-11-21T06:35:20;0.73;;;0.35;;
36671;SDS011;22663;47.412;9.742;2022-11-21T06:37:46;1.15;;;0.60;;
36671;SDS011;22663;47.412;9.742;2022-11-21T06:40:12;1.17;;;0.68;;
36671;SDS011;22663;47.412;9.742;2022-11-21T06:42:38;0.77;;;0.70;;
36671;SDS011;22663;47.412;9.742;2022-11-21T06:45:04;1.25;;;0.68;;
36671;SDS011;22663;47.412;9.742;2022-11-21T06:47:34;2.45;;;1.48;;
36671;SDS011;22663;47.412;9.742;2022-11-21T06:50:00;1.95;;;1.10;;
36671;SDS011;22663;47.412;9.742;2022-11-21T06:52:26;1.20;;;0.70;;
36671;SDS011;22663;47.412;9.742;2022-11-21T06:54:52;1.40;;;0.60;;
36671;SDS011;22663;47.412;9.742;2022-11-21T06:57:18;2.17;;;0.60;;
36671;SDS011;22663;47.412;9.742;2022-11-21T06:59:44;1.33;;;0.75;;
36671;SDS011;22663;47.412;9.742;2022-11-21T07:02:13;0.65;;;0.60;;
36671;SDS011;22663;47.412;9.742;2022-11-21T07:04:39;1.35;;;0.65;;
36671;SDS011;22663;47.412;9.742;2022-11-21T07:07:05;1.02;;;0.47;;
36671;SDS011;22663;47.412;9.742;2022-11-21T07:09:31;1.33;;;0.55;;
36671;SDS011;22663;47.412;9.742;2022-11-21T07:11:59;2.35;;;0.60;;
36671;SDS011;22663;47.412;9.742;2022-11-21T07:14:45;2.83;;;0.80;;
36671;SDS011;22663;47.412;9.742;2022-11-21T07:17:12;0.93;;;0.73;;
36671;SDS011;22663;47.412;9.742;2022-11-21T07:19:38;1.92;;;0.60;;
36671;SDS011;22663;47.412;9.742;2022-11-21T07:22:04;1.42;;;0.55;;
36671;SDS011;22663;47.412;9.742;2022-11-21T07:24:31;1.17;;;0.60;;
36671;SDS011;22663;47.412;9.742;2022-11-21T07:26:57;3.20;;;0.90;;
36671;SDS011;22663;47.412;9.742;2022-11-21T07:29:23;1.73;;;0.70;;
36671;SDS011;22663;47.412;9.742;2022-11-21T07:31:49;1.52;;;0.60;;
36671;SDS011;22663;47.412;9.742;2022-11-21T07:34:15;2.70;;;0.50;;
36671;SDS011;22663;47.412;9.742;2022-11-21T07:36:41;1.17;;;0.73;;
36671;SDS011;22663;47.412;9.742;2022-11-21T07:39:07;2.15;;;0.47;;
36671;SDS011;22663;47.412;9.742;2022-11-21T07:41:33;2.38;;;0.50;;
36671;SDS011;22663;47.412;9.742;2022-11-21T07:43:59;2.90;;;0.60;;
36671;SDS011;22663;47.412;9.742;2022-11-21T07:46:25;1.50;;;0.65;;
36671;SDS011;22663;47.412;9.742;2022-11-21T07:48:51;5.72;;;0.80;;
36671;SDS011;22663;47.412;9.742;2022-11-21T07:51:17;1.88;;;0.70;;
36671;SDS011;22663;47.412;9.742;2022-11-21T07:53:43;2.80;;;0.50;;
36671;SDS011;22663;47.412;9.742;2022-11-21T07:56:09;0.95;;;0.60;;
36671;SDS011;22663;47.412;9.742;2022-11-21T07:58:35;2.08;;;0.82;;
36671;SDS011;22663;47.412;9.742;2022-11-21T08:01:02;0.93;;;0.50;;
36671;SDS011;22663;47.412;9.742;2022-11-21T08:03:29;1.95;;;1.08;;
36671;SDS011;22663;47.412;9.742;2022-11-21T08:05:55;1.83;;;0.60;;
36671;SDS011;22663;47.412;9.742;2022-11-21T08:08:21;0.90;;;0.60;;
36671;SDS011;22663;47.412;9.742;2022-11-21T08:10:47;1.50;;;0.77;;
36671;SDS011;22663;47.412;9.742;2022-11-21T08:13:15;3.45;;;0.70;;
36671;SDS011;22663;47.412;9.742;2022-11-21T08:15:41;0.90;;;0.70;;
36671;SDS011;22663;47.412;9.742;2022-11-21T08:18:11;1.50;;;0.73;;
36671;SDS011;22663;47.412;9.742;2022-11-21T08:20:38;1.70;;;0.88;;
36671;SDS011;22663;47.412;9.742;2022-11-21T08:23:04;1.55;;;0.93;;
36671;SDS011;22663;47.412;9.742;2022-11-21T08:25:31;2.92;;;0.90;;
36671;SDS011;22663;47.412;9.742;2022-11-21T08:27:57;3.00;;;1.10;;
36671;SDS011;22663;47.412;9.742;2022-11-21T08:30:23;2.83;;;1.35;;
36671;SDS011;22663;47.412;9.742;2022-11-21T08:32:49;2.28;;;1.00;;
36671;SDS011;22663;47.412;9.742;2022-11-21T08:35:15;2.15;;;1.00;;
36671;SDS011;22663;47.412;9.742;2022-11-21T08:37:42;2.03;;;0.93;;
36671;SDS011;22663;47.412;9.742;2022-11-21T08:40:08;1.33;;;0.80;;
36671;SDS011;22663;47.412;9.742;2022-11-21T08:42:34;2.03;;;0.80;;
36671;SDS011;22663;47.412;9.742;2022-11-21T08:45:02;1.33;;;0.82;;
36671;SDS011;22663;47.412;9.742;2022-11-21T08:47:28;1.73;;;0.70;;
36671;SDS011;22663;47.412;9.742;2022-11-21T08:49:54;1.67;;;1.00;;
36671;SDS011;22663;47.412;9.742;2022-11-21T08:52:20;1.83;;;1.05;;
36671;SDS011;22663;47.412;9.742;2022-11-21T08:54:46;2.42;;;0.60;;
36671;SDS011;22663;47.412;9.742;2022-11-21T08:57:12;2.45;;;1.30;;
36671;SDS011;22663;47.412;9.742;2022-11-21T08:59:39;1.90;;;0.98;;
36671;SDS011;22663;47.412;9.742;2022-11-21T09:02:05;3.58;;;1.00;;
36671;SDS011;22663;47.412;9.742;2022-11-21T09:04:31;1.48;;;0.90;;
36671;SDS011;22663;47.412;9.742;2022-11-21T09:06:57;2.00;;;1.10;;
36671;SDS011;22663;47.412;9.742;2022-11-21T09:09:23;2.10;;;1.35;;
36671;SDS011;22663;47.412;9.742;2022-11-21T09:11:49;1.40;;;1.02;;
36671;SDS011;22663;47.412;9.742;2022-11-21T09:14:15;1.98;;;1.00;;
36671;SDS011;22663;47.412;9.742;2022-11-21T09:17:00;2.35;;;1.20;;
36671;SDS011;22663;47.412;9.742;2022-11-21T09:19:44;1.60;;;0.90;;
36671;SDS011;22663;47.412;9.742;2022-11-21T09:22:10;1.63;;;0.98;;
36671;SDS011;22663;47.412;9.742;2022-11-21T09:24:36;1.92;;;0.90;;
36671;SDS011;22663;47.412;9.742;2022-11-21T09:27:02;2.83;;;0.90;;
36671;SDS011;22663;47.412;9.742;2022-11-21T09:29:28;2.17;;;1.05;;
36671;SDS011;22663;47.412;9.742;2022-11-21T09:31:56;6.88;;;1.10;;
36671;SDS011;22663;47.412;9.742;2022-11-21T09:34:22;1.50;;;0.90;;
36671;SDS011;22663;47.412;9.742;2022-11-21T09:36:49;2.00;;;1.02;;
36671;SDS011;22663;47.412;9.742;2022-11-21T09:39:15;2.53;;;1.20;;
36671;SDS011;22663;47.412;9.742;2022-11-21T09:41:48;1.92;;;1.00;;
36671;SDS011;22663;47.412;9.742;2022-11-21T09:47:21;1.63;;;0.98;;
36671;SDS011;22663;47.412;9.742;2022-11-21T09:49:54;1.50;;;1.20;;
36671;SDS011;22663;47.412;9.742;2022-11-21T09:52:21;1.33;;;0.90;;
36671;SDS011;22663;47.412;9.742;2022-11-21T09:54:52;1.38;;;1.00;;
36671;SDS011;22663;47.412;9.742;2022-11-21T09:57:20;1.30;;;0.90;;
36671;SDS011;22663;47.412;9.742;2022-11-21T09:59:47;1.42;;;1.00;;
36671;SDS011;22663;47.412;9.742;2022-11-21T10:02:15;1.48;;;1.05;;
36671;SDS011;22663;47.412;9.742;2022-11-21T10:04:42;6.03;;;1.60;;
36671;SDS011;22663;47.412;9.742;2022-11-21T10:07:13;2.10;;;1.27;;
36671;SDS011;22663;47.412;9.742;2022-11-21T10:09:46;1.40;;;1.20;;
36671;SDS011;22663;47.412;9.742;2022-11-21T10:18:17;2.63;;;1.50;;
36671;SDS011;22663;47.412;9.742;2022-11-21T10:22:59;3.17;;;1.45;;
36671;SDS011;22663;47.412;9.742;2022-11-21T10:25:27;1.85;;;1.27;;
36671;SDS011;22663;47.412;9.742;2022-11-21T10:28:37;2.33;;;1.35;;
36671;SDS011;22663;47.412;9.742;2022-11-21T10:30:43;1.77;;;1.00;;
36671;SDS011;22663;47.412;9.742;2022-11-21T10:33:52;3.08;;;1.15;;
36671;SDS011;22663;47.412;9.742;2022-11-21T10:36:17;1.70;;;1.10;;
36671;SDS011;22663;47.412;9.742;2022-11-21T10:38:47;3.17;;;1.10;;
36671;SDS011;22663;47.412;9.742;2022-11-21T10:41:16;2.28;;;1.50;;
36671;SDS011;22663;47.412;9.742;2022-11-21T10:43:58;1.63;;;1.13;;
36671;SDS011;22663;47.412;9.742;2022-11-21T10:46:58;1.90;;;1.10;;
36671;SDS011;22663;47.412;9.742;2022-11-21T10:49:25;0.98;;;0.80;;
36671;SDS011;22663;47.412;9.742;2022-11-21T10:52:06;2.35;;;1.02;;
36671;SDS011;22663;47.412;9.742;2022-11-21T10:54:32;3.33;;;1.02;;
36671;SDS011;22663;47.412;9.742;2022-11-21T10:57:18;1.70;;;0.93;;
36671;SDS011;22663;47.412;9.742;2022-11-21T11:02:23;1.38;;;0.80;;
36671;SDS011;22663;47.412;9.742;2022-11-21T11:05:15;2.30;;;0.82;;
36671;SDS011;22663;47.412;9.742;2022-11-21T11:07:36;3.03;;;0.80;;
36671;SDS011;22663;47.412;9.742;2022-11-21T11:10:15;3.22;;;1.40;;
36671;SDS011;22663;47.412;9.742;2022-11-21T11:12:47;1.75;;;1.15;;
36671;SDS011;22663;47.412;9.742;2022-11-21T11:15:32;2.03;;;1.35;;
36671;SDS011;22663;47.412;9.742;2022-11-21T11:17:59;4.20;;;1.50;;
36671;SDS011;22663;47.412;9.742;2022-11-21T11:20:35;3.75;;;1.70;;
36671;SDS011;22663;47.412;9.742;2022-11-21T11:25:50;2.60;;;1.42;;
36671;SDS011;22663;47.412;9.742;2022-11-21T11:28:16;5.18;;;1.60;;
36671;SDS011;22663;47.412;9.742;2022-11-21T11:30:48;3.63;;;1.63;;
36671;SDS011;22663;47.412;9.742;2022-11-21T11:36:23;3.35;;;1.70;;
36671;SDS011;22663;47.412;9.742;2022-11-21T11:38:52;3.95;;;1.88;;
36671;SDS011;22663;47.412;9.742;2022-11-21T11:44:18;4.40;;;1.88;;
36671;SDS011;22663;47.412;9.742;2022-11-21T11:47:21;2.13;;;1.60;;
36671;SDS011;22663;47.412;9.742;2022-11-21T11:49:57;2.78;;;1.42;;
36671;SDS011;22663;47.412;9.742;2022-11-21T11:57:58;3.47;;;1.60;;
36671;SDS011;22663;47.412;9.742;2022-11-21T12:00:34;2.33;;;1.33;;
36671;SDS011;22663;47.412;9.742;2022-11-21T12:05:49;2.10;;;1.05;;
36671;SDS011;22663;47.412;9.742;2022-11-21T12:08:28;2.65;;;1.25;;
36671;SDS011;22663;47.412;9.742;2022-11-21T12:10:56;1.48;;;1.10;;
36671;SDS011;22663;47.412;9.742;2022-11-21T12:13:43;2.88;;;1.27;;
36671;SDS011;22663;47.412;9.742;2022-11-21T12:16:12;1.05;;;0.60;;
36671;SDS011;22663;47.412;9.742;2022-11-21T12:18:50;2.67;;;0.60;;
36671;SDS011;22663;47.412;9.742;2022-11-21T12:21:19;0.63;;;0.30;;
36671;SDS011;22663;47.412;9.742;2022-11-21T12:26:19;1.50;;;0.50;;
36671;SDS011;22663;47.412;9.742;2022-11-21T12:34:17;1.70;;;0.85;;
36671;SDS011;22663;47.412;9.742;2022-11-21T12:53:42;1.25;;;0.70;;
36671;SDS011;22663;47.412;9.742;2022-11-21T12:59:13;2.20;;;0.70;;
36671;SDS011;22663;47.412;9.742;2022-11-21T13:02:01;1.88;;;0.80;;
36671;SDS011;22663;47.412;9.742;2022-11-21T13:04:29;2.08;;;0.80;;
36671;SDS011;22663;47.412;9.742;2022-11-21T13:06:59;1.50;;;0.77;;
36671;SDS011;22663;47.412;9.742;2022-11-21T13:09:26;1.33;;;0.73;;
36671;SDS011;22663;47.412;9.742;2022-11-21T13:22:06;3.65;;;0.88;;
36671;SDS011;22663;47.412;9.742;2022-11-21T13:27:36;0.93;;;0.47;;
36671;SDS011;22663;47.412;9.742;2022-11-21T13:32:38;1.08;;;0.60;;
36671;SDS011;22663;47.412;9.742;2022-11-21T14:00:54;2.92;;;1.00;;
36671;SDS011;22663;47.412;9.742;2022-11-21T14:03:44;1.27;;;0.70;;
36671;SDS011;22663;47.412;9.742;2022-11-21T14:06:21;2.50;;;0.70;;
36671;SDS011;22663;47.412;9.742;2022-11-21T14:09:13;3.28;;;0.90;;
36671;SDS011;22663;47.412;9.742;2022-11-21T14:11:45;1.05;;;0.80;;
36671;SDS011;22663;47.412;9.742;2022-11-21T14:19:40;2.00;;;0.93;;
36671;SDS011;22663;47.412;9.742;2022-11-21T14:22:13;3.40;;;0.88;;
36671;SDS011;22663;47.412;9.742;2022-11-21T14:24:40;1.52;;;0.80;;
36671;SDS011;22663;47.412;9.742;2022-11-21T14:27:06;1.27;;;0.90;;
36671;SDS011;22663;47.412;9.742;2022-11-21T14:29:38;2.05;;;1.00;;
36671;SDS011;22663;47.412;9.742;2022-11-21T14:32:04;1.30;;;0.60;;
36671;SDS011;22663;47.412;9.742;2022-11-21T14:34:31;1.92;;;0.57;;
36671;SDS011;22663;47.412;9.742;2022-11-21T14:36:58;1.48;;;0.68;;
36671;SDS011;22663;47.412;9.742;2022-11-21T14:39:26;2.75;;;0.60;;
36671;SDS011;22663;47.412;9.742;2022-11-21T14:41:55;2.42;;;0.60;;
36671;SDS011;22663;47.412;9.742;2022-11-21T14:44:22;3.08;;;0.68;;
36671;SDS011;22663;47.412;9.742;2022-11-21T14:46:49;2.05;;;0.57;;
36671;SDS011;22663;47.412;9.742;2022-11-21T14:51:46;2.60;;;0.63;;
36671;SDS011;22663;47.412;9.742;2022-11-21T14:54:14;3.10;;;0.68;;
36671;SDS011;22663;47.412;9.742;2022-11-21T14:56:41;1.38;;;0.70;;
36671;SDS011;22663;47.412;9.742;2022-11-21T14:59:11;2.05;;;0.57;;
36671;SDS011;22663;47.412;9.742;2022-11-21T15:01:39;3.22;;;0.60;;
36671;SDS011;22663;47.412;9.742;2022-11-21T15:04:06;1.17;;;0.60;;
36671;SDS011;22663;47.412;9.742;2022-11-21T15:06:40;2.15;;;0.57;;
36671;SDS011;22663;47.412;9.742;2022-11-21T15:09:10;1.83;;;0.52;;
36671;SDS011;22663;47.412;9.742;2022-11-21T15:11:48;2.25;;;0.50;;
36671;SDS011;22663;47.412;9.742;2022-11-21T15:14:20;2.95;;;0.55;;
36671;SDS011;22663;47.412;9.742;2022-11-21T15:16:49;1.23;;;0.55;;
36671;SDS011;22663;47.412;9.742;2022-11-21T15:19:20;0.75;;;0.40;;
36671;SDS011;22663;47.412;9.742;2022-11-21T15:21:46;1.73;;;0.35;;
36671;SDS011;22663;47.412;9.742;2022-11-21T15:24:32;0.40;;;0.20;;
36671;SDS011;22663;47.412;9.742;2022-11-21T15:27:21;1.02;;;0.32;;
36671;SDS011;22663;47.412;9.742;2022-11-21T15:29:47;2.05;;;0.40;;
36671;SDS011;22663;47.412;9.742;2022-11-21T15:32:13;1.98;;;0.32;;
36671;SDS011;22663;47.412;9.742;2022-11-21T15:34:39;2.83;;;0.32;;
36671;SDS011;22663;47.412;9.742;2022-11-21T15:37:14;0.50;;;0.30;;
36671;SDS011;22663;47.412;9.742;2022-11-21T15:39:43;0.63;;;0.20;;
36671;SDS011;22663;47.412;9.742;2022-11-21T15:44:58;1.25;;;0.40;;
36671;SDS011;22663;47.412;9.742;2022-11-21T15:47:25;0.40;;;0.20;;
36671;SDS011;22663;47.412;9.742;2022-11-21T15:49:51;1.30;;;0.40;;
36671;SDS011;22663;47.412;9.742;2022-11-21T15:52:17;2.25;;;0.40;;
36671;SDS011;22663;47.412;9.742;2022-11-21T15:54:45;1.88;;;0.43;;
36671;SDS011;22663;47.412;9.742;2022-11-21T15:57:12;1.48;;;0.30;;
36671;SDS011;22663;47.412;9.742;2022-11-21T15:59:39;1.27;;;0.30;;
36671;SDS011;22663;47.412;9.742;2022-11-21T16:02:05;1.35;;;0.47;;
36671;SDS011;22663;47.412;9.742;2022-11-21T16:04:33;0.40;;;0.17;;
36671;SDS011;22663;47.412;9.742;2022-11-21T16:06:59;1.50;;;0.43;;
36671;SDS011;22663;47.412;9.742;2022-11-21T16:09:26;0.82;;;0.28;;
36671;SDS011;22663;47.412;9.742;2022-11-21T16:11:53;0.77;;;0.38;;
36671;SDS011;22663;47.412;9.742;2022-11-21T16:14:19;0.68;;;0.38;;
36671;SDS011;22663;47.412;9.742;2022-11-21T16:16:45;0.73;;;0.40;;
36671;SDS011;22663;47.412;9.742;2022-11-21T16:19:11;0.70;;;0.38;;
36671;SDS011;22663;47.412;9.742;2022-11-21T16:21:38;1.65;;;0.50;;
36671;SDS011;22663;47.412;9.742;2022-11-21T16:24:04;0.88;;;0.45;;
36671;SDS011;22663;47.412;9.742;2022-11-21T16:26:30;0.98;;;0.43;;
36671;SDS011;22663;47.412;9.742;2022-11-21T16:28:57;2.25;;;0.30;;
36671;SDS011;22663;47.412;9.742;2022-11-21T16:31:24;1.48;;;0.85;;
36671;SDS011;22663;47.412;9.742;2022-11-21T16:33:51;2.33;;;1.02;;
36671;SDS011;22663;47.412;9.742;2022-11-21T16:36:35;0.70;;;0.40;;
36671;SDS011;22663;47.412;9.742;2022-11-21T16:39:01;0.80;;;0.40;;
36671;SDS011;22663;47.412;9.742;2022-11-21T16:41:27;0.50;;;0.40;;
36671;SDS011;22663;47.412;9.742;2022-11-21T16:43:54;0.50;;;0.30;;
36671;SDS011;22663;47.412;9.742;2022-11-21T16:46:21;0.30;;;0.20;;
36671;SDS011;22663;47.412;9.742;2022-11-21T16:48:48;0.77;;;0.20;;
36671;SDS011;22663;47.412;9.742;2022-11-21T16:51:21;1.23;;;0.40;;
36671;SDS011;22663;47.412;9.742;2022-11-21T16:53:47;1.20;;;0.40;;